createdAt,value
2023-06-22T00:01:15.221Z,5.63
2023-06-22T00:03:41.975Z,5.63
2023-06-22T00:06:08.667Z,6.18
2023-06-22T00:08:35.319Z,9.57
2023-06-22T00:11:01.961Z,5.95
2023-06-22T00:13:28.571Z,5.50
2023-06-22T00:15:55.184Z,9.65
2023-06-22T00:18:21.820Z,6.30
2023-06-22T00:20:48.472Z,5.72
2023-06-22T00:23:16.814Z,7.47
2023-06-22T00:25:43.496Z,6.53
2023-06-22T00:28:10.283Z,7.78
2023-06-22T00:30:37.265Z,7.75
2023-06-22T00:33:04.421Z,5.47
2023-06-22T00:35:31.370Z,7.47
2023-06-22T00:38:01.948Z,6.20
2023-06-22T00:40:30.091Z,6.63
2023-06-22T00:42:57.168Z,6.10
2023-06-22T00:45:27.552Z,6.22
2023-06-22T00:47:55.871Z,6.30
2023-06-22T00:50:24.220Z,7.90
2023-06-22T00:53:00.063Z,6.57
2023-06-22T00:55:27.317Z,6.38
2023-06-22T00:57:56.880Z,8.02
2023-06-22T01:00:25.838Z,6.93
2023-06-22T01:02:54.092Z,6.53
2023-06-22T01:05:22.335Z,6.60
2023-06-22T01:07:54.106Z,7.80
2023-06-22T01:10:35.958Z,6.20
2023-06-22T01:13:17.148Z,7.53
2023-06-22T01:15:52.067Z,6.50
2023-06-22T01:18:20.661Z,8.68
2023-06-22T01:20:48.176Z,7.53
2023-06-22T01:23:42.637Z,8.75
2023-06-22T01:26:43.213Z,13.55
2023-06-22T01:29:13.367Z,7.53
2023-06-22T01:31:41.494Z,9.95
2023-06-22T01:34:10.309Z,10.18
2023-06-22T01:36:38.622Z,7.85
2023-06-22T01:39:06.890Z,9.03
2023-06-22T01:41:37.249Z,11.17
2023-06-22T01:44:07.140Z,11.00
2023-06-22T01:46:35.412Z,10.00
2023-06-22T01:49:03.542Z,9.40
2023-06-22T01:51:31.185Z,9.43
2023-06-22T01:53:57.897Z,10.13
2023-06-22T01:56:24.756Z,11.52
2023-06-22T01:59:03.083Z,9.73
2023-06-22T02:01:36.830Z,9.13
2023-06-22T02:04:12.796Z,11.27
2023-06-22T02:06:43.128Z,13.85
2023-06-22T02:09:22.989Z,9.60
2023-06-22T02:11:54.674Z,11.50
2023-06-22T02:14:22.727Z,10.13
2023-06-22T02:16:50.361Z,12.35
2023-06-22T02:19:16.959Z,12.65
2023-06-22T02:21:43.546Z,11.98
2023-06-22T02:24:10.193Z,11.98
2023-06-22T02:26:39.283Z,12.27
2023-06-22T02:29:05.896Z,11.75
2023-06-22T02:31:32.755Z,10.00
2023-06-22T02:34:00.118Z,11.98
2023-06-22T02:36:28.109Z,17.98
2023-06-22T02:38:59.866Z,10.90
2023-06-22T02:41:26.424Z,17.00
2023-06-22T02:43:53.080Z,11.88
2023-06-22T02:46:19.787Z,11.95
2023-06-22T02:48:47.319Z,12.15
2023-06-22T02:51:13.973Z,10.60
2023-06-22T02:53:40.578Z,11.35
2023-06-22T02:56:07.184Z,11.10
2023-06-22T02:58:39.736Z,13.35
2023-06-22T03:01:07.208Z,10.43
2023-06-22T03:03:34.102Z,15.13
2023-06-22T03:06:02.625Z,13.10
2023-06-22T03:08:30.108Z,11.82
2023-06-22T03:10:57.183Z,12.00
2023-06-22T03:13:24.059Z,11.20
2023-06-22T03:15:50.822Z,12.43
2023-06-22T03:18:17.412Z,12.15
2023-06-22T03:20:44.022Z,10.55
2023-06-22T03:23:10.619Z,10.45
2023-06-22T03:25:37.219Z,12.57
2023-06-22T03:28:03.943Z,11.68
2023-06-22T03:30:30.743Z,16.77
2023-06-22T03:32:57.670Z,13.52
2023-06-22T03:35:24.428Z,14.30
2023-06-22T03:37:51.091Z,12.43
2023-06-22T03:40:17.758Z,10.23
2023-06-22T03:42:44.524Z,13.52
2023-06-22T03:45:11.677Z,11.65
2023-06-22T03:47:38.389Z,11.40
2023-06-22T03:50:05.539Z,10.68
2023-06-22T03:52:32.638Z,14.38
2023-06-22T03:54:59.306Z,10.02
2023-06-22T03:57:25.969Z,12.00
2023-06-22T03:59:52.651Z,13.00
2023-06-22T04:02:19.285Z,10.48
2023-06-22T04:04:46.042Z,10.45
2023-06-22T04:07:12.723Z,10.40
2023-06-22T04:09:39.278Z,17.83
2023-06-22T04:12:06.363Z,10.27
2023-06-22T04:14:33.004Z,10.57
2023-06-22T04:16:59.897Z,12.35
2023-06-22T04:19:26.571Z,10.73
2023-06-22T04:21:53.237Z,11.98
2023-06-22T04:24:19.948Z,11.80
2023-06-22T04:26:47.905Z,13.63
2023-06-22T04:29:15.007Z,10.20
2023-06-22T04:31:42.125Z,10.85
2023-06-22T04:34:09.290Z,12.48
2023-06-22T04:36:38.488Z,22.38
2023-06-22T04:41:43.675Z,9.77
2023-06-22T04:44:13.963Z,10.45
2023-06-22T04:46:41.254Z,34.15
2023-06-22T04:49:12.053Z,24.63
2023-06-22T04:51:43.025Z,10.70
2023-06-22T04:54:10.484Z,10.73
2023-06-22T04:56:37.358Z,9.70
2023-06-22T04:59:04.526Z,16.90
2023-06-22T05:01:35.675Z,12.48
2023-06-22T05:04:04.302Z,16.25
2023-06-22T05:06:31.055Z,13.80
2023-06-22T05:08:58.471Z,13.10
2023-06-22T05:11:27.088Z,12.95
2023-06-22T05:13:54.185Z,13.10
2023-06-22T05:16:25.521Z,12.52
2023-06-22T05:18:56.223Z,11.13
2023-06-22T05:21:28.112Z,12.25
2023-06-22T05:23:55.556Z,14.52
2023-06-22T05:26:22.557Z,21.55
2023-06-22T05:28:49.451Z,14.27
2023-06-22T05:31:17.552Z,11.57
2023-06-22T05:33:45.148Z,13.15
2023-06-22T05:36:11.725Z,11.65
2023-06-22T05:38:38.390Z,13.93
2023-06-22T05:41:05.424Z,10.90
2023-06-22T05:43:32.229Z,19.38
2023-06-22T05:45:59.364Z,16.33
2023-06-22T05:48:26.130Z,14.98
2023-06-22T05:50:53.938Z,13.93
2023-06-22T05:53:20.815Z,16.25
2023-06-22T05:55:47.743Z,11.05
2023-06-22T05:58:14.637Z,13.40
2023-06-22T06:00:42.289Z,17.63
2023-06-22T06:03:09.693Z,10.00
2023-06-22T06:05:37.302Z,15.27
2023-06-22T06:08:06.639Z,10.82
2023-06-22T06:10:34.510Z,9.48
2023-06-22T06:13:05.335Z,8.98
2023-06-22T06:15:33.240Z,12.77
2023-06-22T06:17:59.989Z,11.15
2023-06-22T06:20:29.347Z,10.25
2023-06-22T06:22:57.062Z,10.55
2023-06-22T06:25:24.066Z,11.65
2023-06-22T06:27:52.110Z,9.13
2023-06-22T06:30:20.057Z,17.58
2023-06-22T06:32:47.682Z,15.07
2023-06-22T06:35:16.179Z,9.77
2023-06-22T06:37:45.200Z,11.02
2023-06-22T06:40:13.432Z,12.80
2023-06-22T06:42:42.899Z,14.45
2023-06-22T06:45:10.223Z,14.73
2023-06-22T06:47:36.888Z,10.20
2023-06-22T06:50:05.724Z,13.60
2023-06-22T06:52:32.309Z,11.73
2023-06-22T06:54:59.018Z,13.02
2023-06-22T06:57:29.647Z,8.73
2023-06-22T06:59:57.313Z,14.90
2023-06-22T07:02:25.078Z,12.13
2023-06-22T07:04:51.776Z,9.98
2023-06-22T07:07:18.410Z,14.45
2023-06-22T07:09:45.021Z,12.07
2023-06-22T07:12:11.670Z,9.25
2023-06-22T07:14:38.247Z,8.90
2023-06-22T07:17:05.109Z,12.63
2023-06-22T07:19:32.512Z,10.27
2023-06-22T07:21:59.076Z,10.48
2023-06-22T07:24:26.091Z,14.55
2023-06-22T07:26:52.970Z,8.55
2023-06-22T07:29:21.773Z,11.23
2023-06-22T07:31:48.885Z,8.70
2023-06-22T07:34:15.526Z,10.77
2023-06-22T07:36:42.105Z,11.07
2023-06-22T07:39:08.711Z,14.82
2023-06-22T07:41:35.333Z,11.82
2023-06-22T07:44:03.717Z,10.77
2023-06-22T07:46:31.251Z,13.23
2023-06-22T07:48:58.301Z,11.70
2023-06-22T07:51:25.141Z,11.65
2023-06-22T07:53:51.776Z,9.00
2023-06-22T07:56:21.854Z,7.88
2023-06-22T07:58:49.031Z,13.65
2023-06-22T08:01:16.221Z,8.93
2023-06-22T08:03:42.937Z,11.55
2023-06-22T08:06:10.253Z,7.43
2023-06-22T08:08:37.618Z,8.95
2023-06-22T08:11:04.288Z,10.52
2023-06-22T08:13:31.041Z,10.25
2023-06-22T08:15:57.592Z,8.40
2023-06-22T08:18:24.226Z,6.53
2023-06-22T08:20:50.907Z,7.68
2023-06-22T08:23:18.818Z,7.32
2023-06-22T08:25:45.525Z,8.18
2023-06-22T08:28:12.104Z,7.03
2023-06-22T08:30:38.847Z,8.25
2023-06-22T08:33:05.433Z,6.55
2023-06-22T08:35:32.245Z,8.40
2023-06-22T08:38:00.322Z,7.63
2023-06-22T08:40:26.975Z,6.38
2023-06-22T08:42:53.603Z,6.40
2023-06-22T08:45:20.246Z,8.32
2023-06-22T08:47:46.968Z,6.30
2023-06-22T08:50:14.127Z,6.78
2023-06-22T08:52:44.269Z,6.30
2023-06-22T08:55:11.595Z,5.88
2023-06-22T08:57:40.067Z,6.50
2023-06-22T09:00:18.298Z,6.65
2023-06-22T09:02:45.890Z,10.15
2023-06-22T09:05:12.785Z,7.07
2023-06-22T09:07:39.594Z,5.68
2023-06-22T09:10:07.298Z,5.60
2023-06-22T09:12:34.346Z,8.75
2023-06-22T09:15:01.860Z,7.13
2023-06-22T09:17:28.618Z,6.53
2023-06-22T09:19:55.652Z,5.90
2023-06-22T09:22:22.270Z,6.68
2023-06-22T09:24:48.907Z,6.10
2023-06-22T09:27:15.783Z,8.20
2023-06-22T09:29:42.412Z,10.45
2023-06-22T09:32:09.539Z,6.75
2023-06-22T09:34:36.202Z,9.23
2023-06-22T09:37:03.072Z,7.55
2023-06-22T09:39:29.619Z,5.88
2023-06-22T09:41:56.185Z,6.93
2023-06-22T09:44:23.028Z,6.70
2023-06-22T09:46:49.763Z,6.47
2023-06-22T09:49:16.406Z,5.82
2023-06-22T09:51:42.986Z,8.45
2023-06-22T09:54:09.606Z,7.28
2023-06-22T09:56:36.139Z,7.00
2023-06-22T09:59:13.949Z,6.35
2023-06-22T10:01:44.782Z,6.93
2023-06-22T10:04:11.852Z,7.47
2023-06-22T10:06:41.456Z,6.15
2023-06-22T10:09:09.004Z,5.43
2023-06-22T10:11:36.169Z,9.35
2023-06-22T10:14:05.064Z,6.37
2023-06-22T10:16:32.505Z,5.32
2023-06-22T10:18:59.251Z,6.28
2023-06-22T10:21:28.025Z,9.32
2023-06-22T10:23:54.763Z,7.25
2023-06-22T10:26:21.322Z,6.25
2023-06-22T10:28:47.868Z,6.85
2023-06-22T10:31:15.115Z,8.65
2023-06-22T10:33:44.291Z,5.53
2023-06-22T10:36:12.074Z,5.30
2023-06-22T10:38:38.728Z,7.03
2023-06-22T10:41:05.339Z,6.97
2023-06-22T10:43:31.916Z,7.28
2023-06-22T10:45:58.462Z,5.50
2023-06-22T10:48:25.080Z,7.43
2023-06-22T10:50:51.651Z,7.45
2023-06-22T10:53:18.229Z,9.50
2023-06-22T10:55:56.317Z,5.47
2023-06-22T10:58:24.414Z,7.40
2023-06-22T11:00:51.101Z,7.68
2023-06-22T11:03:17.856Z,5.95
2023-06-22T11:05:44.504Z,5.85
2023-06-22T11:08:11.593Z,6.10
2023-06-22T11:10:38.216Z,8.75
2023-06-22T11:13:06.200Z,6.07
2023-06-22T11:17:59.622Z,5.72
2023-06-22T11:20:26.276Z,4.53
2023-06-22T11:22:52.867Z,7.40
2023-06-22T11:25:19.592Z,7.70
2023-06-22T11:27:46.277Z,5.90
2023-06-22T11:30:12.901Z,9.90
2023-06-22T11:32:39.578Z,8.73
2023-06-22T11:35:06.393Z,10.20
2023-06-22T11:37:33.136Z,11.23
2023-06-22T11:40:06.730Z,8.05
2023-06-22T11:42:34.209Z,9.70
2023-06-22T11:45:00.766Z,8.35
2023-06-22T11:47:27.472Z,8.52
2023-06-22T11:49:54.239Z,8.60
2023-06-22T11:52:20.952Z,10.48
2023-06-22T11:54:47.825Z,9.77
2023-06-22T11:57:14.710Z,9.35
2023-06-22T11:59:41.697Z,12.20
2023-06-22T12:02:08.756Z,9.95
2023-06-22T12:04:35.392Z,7.95
2023-06-22T12:07:02.103Z,9.52
2023-06-22T12:09:28.798Z,8.52
2023-06-22T12:11:55.490Z,8.60
2023-06-22T12:14:22.551Z,10.35
2023-06-22T12:16:49.191Z,8.38
2023-06-22T12:19:15.803Z,11.00
2023-06-22T12:21:42.940Z,8.80
2023-06-22T12:24:09.607Z,9.98
2023-06-22T12:26:36.272Z,12.13
2023-06-22T12:29:02.883Z,10.38
2023-06-22T12:31:29.696Z,17.77
2023-06-22T12:33:56.539Z,9.93
2023-06-22T12:36:23.253Z,11.23
2023-06-22T12:38:49.876Z,12.88
2023-06-22T12:41:16.508Z,11.77
2023-06-22T12:43:43.248Z,12.20
2023-06-22T12:46:10.988Z,11.48
2023-06-22T12:48:42.649Z,12.40
2023-06-22T12:51:10.371Z,12.40
2023-06-22T12:53:37.073Z,9.97
2023-06-22T12:56:03.852Z,14.93
2023-06-22T12:58:30.492Z,9.02
2023-06-22T13:00:57.151Z,13.50
2023-06-22T13:03:26.219Z,9.85
2023-06-22T13:05:53.050Z,14.07
2023-06-22T13:08:19.641Z,15.07
2023-06-22T13:10:46.196Z,9.85
2023-06-22T13:13:12.759Z,11.73
2023-06-22T13:15:39.316Z,11.07
2023-06-22T13:18:05.963Z,11.52
2023-06-22T13:20:32.553Z,10.52
2023-06-22T13:22:59.236Z,12.90
2023-06-22T13:25:27.606Z,15.27
2023-06-22T13:27:54.670Z,13.70
2023-06-22T13:30:21.349Z,11.43
2023-06-22T13:32:48.015Z,16.45
2023-06-22T13:40:42.934Z,17.70
2023-06-22T13:43:09.510Z,13.57
2023-06-22T13:51:04.957Z,10.48
2023-06-22T13:53:31.564Z,15.82
2023-06-22T13:55:58.694Z,11.07
2023-06-22T13:58:25.374Z,11.85
2023-06-22T14:00:52.796Z,12.32
2023-06-22T14:03:20.347Z,12.90
2023-06-22T14:05:47.736Z,16.23
2023-06-22T14:08:34.640Z,14.20
2023-06-22T14:11:01.303Z,12.43
2023-06-22T14:13:27.861Z,18.95
2023-06-22T14:15:55.164Z,12.48
2023-06-22T14:18:23.233Z,11.32
2023-06-22T14:20:50.214Z,9.68
2023-06-22T14:23:16.871Z,15.60
2023-06-22T14:25:43.405Z,14.73
2023-06-22T14:28:10.018Z,11.13
2023-06-22T14:30:36.532Z,13.95
2023-06-22T14:33:03.278Z,10.75
2023-06-22T14:35:30.106Z,13.95
2023-06-22T14:37:56.678Z,12.38
2023-06-22T14:40:25.777Z,12.13
2023-06-22T14:42:53.505Z,14.57
2023-06-22T14:45:20.232Z,14.05
2023-06-22T14:47:46.847Z,10.30
2023-06-22T14:50:13.439Z,11.95
2023-06-22T14:52:40.008Z,17.25
2023-06-22T14:55:07.073Z,16.02
2023-06-22T14:57:33.676Z,14.38
2023-06-22T15:00:02.594Z,12.13
2023-06-22T15:02:29.429Z,14.95
2023-06-22T15:04:56.656Z,15.63
2023-06-22T15:07:23.300Z,13.30
2023-06-22T15:09:49.910Z,14.15
2023-06-22T15:12:16.978Z,18.70
2023-06-22T15:14:43.553Z,15.45
2023-06-22T15:17:10.428Z,14.57
2023-06-22T15:19:38.556Z,15.73
2023-06-22T15:22:06.651Z,18.52
2023-06-22T15:24:33.848Z,11.60
2023-06-22T15:27:01.456Z,14.90
2023-06-22T15:29:28.290Z,15.82
2023-06-22T15:31:54.931Z,12.18
2023-06-22T15:34:21.513Z,14.93
2023-06-22T15:36:49.079Z,16.33
2023-06-22T15:39:17.825Z,22.15
2023-06-22T15:41:44.570Z,14.52
2023-06-22T15:44:11.346Z,16.52
2023-06-22T15:46:37.947Z,21.15
2023-06-22T15:49:04.621Z,21.15
2023-06-22T15:51:31.494Z,16.10
2023-06-22T15:53:59.170Z,12.70
2023-06-22T15:56:25.965Z,13.57
2023-06-22T15:58:52.594Z,14.95
2023-06-22T16:01:19.317Z,13.80
2023-06-22T16:03:46.020Z,21.85
2023-06-22T16:06:12.667Z,12.40
2023-06-22T16:08:39.284Z,17.30
2023-06-22T16:11:05.964Z,19.10
2023-06-22T16:13:32.554Z,19.20
2023-06-22T16:15:59.283Z,15.20
2023-06-22T16:18:25.924Z,13.95
2023-06-22T16:20:52.573Z,15.93
2023-06-22T16:23:19.428Z,15.02
2023-06-22T16:25:46.018Z,19.25
2023-06-22T16:28:12.699Z,17.65
2023-06-22T16:30:39.804Z,15.60
2023-06-22T16:33:06.655Z,14.55
2023-06-22T16:35:37.624Z,20.52
2023-06-22T16:38:04.309Z,16.60
2023-06-22T16:40:31.133Z,9.93
2023-06-22T16:42:57.864Z,8.38
2023-06-22T16:45:24.674Z,5.63
2023-06-22T16:47:52.603Z,9.07
2023-06-22T16:50:19.991Z,9.15
2023-06-22T16:52:47.804Z,8.90
2023-06-22T16:55:14.837Z,8.38
2023-06-22T16:57:42.622Z,11.00
2023-06-22T17:00:12.374Z,15.38
2023-06-22T17:02:46.857Z,15.20
2023-06-22T17:05:14.820Z,11.05
2023-06-22T17:07:48.667Z,11.90
2023-06-22T17:10:15.926Z,8.07
2023-06-22T17:12:42.709Z,10.18
2023-06-22T17:15:11.865Z,8.18
2023-06-22T17:20:08.343Z,9.35
2023-06-22T17:22:38.854Z,5.18
2023-06-22T17:25:10.520Z,12.40
2023-06-22T17:27:37.497Z,15.75
2023-06-22T17:30:08.008Z,12.55
2023-06-22T17:32:34.781Z,9.18
2023-06-22T17:35:02.981Z,12.38
2023-06-22T17:37:34.993Z,12.07
2023-06-22T17:40:01.660Z,10.32
2023-06-22T17:42:29.494Z,7.88
2023-06-22T17:45:01.968Z,12.40
2023-06-22T17:47:29.408Z,8.15
2023-06-22T17:50:05.340Z,11.63
2023-06-22T17:52:31.991Z,9.70
2023-06-22T17:55:11.024Z,8.95
2023-06-22T17:57:40.040Z,14.98
2023-06-22T18:00:09.930Z,8.73
2023-06-22T18:02:43.873Z,11.48
2023-06-22T18:05:11.568Z,9.40
2023-06-22T18:07:38.695Z,14.70
2023-06-22T18:10:06.937Z,11.02
2023-06-22T18:12:35.521Z,14.13
2023-06-22T18:15:04.219Z,9.27
2023-06-22T18:17:30.939Z,10.52
2023-06-22T18:20:00.372Z,11.13
2023-06-22T18:22:27.145Z,10.20
2023-06-22T18:24:55.084Z,8.27
2023-06-22T18:27:24.597Z,15.23
2023-06-22T18:29:51.939Z,13.70
2023-06-22T18:32:18.546Z,10.23
2023-06-22T18:34:45.861Z,12.10
2023-06-22T18:37:16.361Z,15.55
2023-06-22T18:39:47.155Z,11.95
2023-06-22T18:42:15.670Z,11.50
2023-06-22T18:44:43.330Z,14.98
2023-06-22T18:47:10.948Z,14.52
2023-06-22T18:49:41.650Z,13.73
2023-06-22T18:52:11.092Z,11.15
2023-06-22T18:54:43.537Z,15.27
2023-06-22T18:57:32.866Z,11.93
2023-06-22T19:00:14.576Z,34.65
2023-06-22T19:02:41.779Z,13.85
2023-06-22T19:05:15.001Z,10.27
2023-06-22T19:07:53.936Z,11.88
2023-06-22T19:10:25.689Z,11.18
2023-06-22T19:12:53.939Z,11.25
2023-06-22T19:15:21.813Z,9.10
2023-06-22T19:17:51.791Z,12.88
2023-06-22T19:20:21.534Z,15.80
2023-06-22T19:22:56.695Z,11.63
2023-06-22T19:25:29.284Z,7.88
2023-06-22T19:27:56.436Z,16.17
2023-06-22T19:30:23.971Z,14.43
2023-06-22T19:32:50.879Z,13.77
2023-06-22T19:35:19.599Z,10.15
2023-06-22T19:37:47.688Z,14.93
2023-06-22T19:40:16.070Z,13.90
2023-06-22T19:42:44.519Z,11.93
2023-06-22T19:45:16.430Z,11.73
2023-06-22T19:47:44.014Z,13.75
2023-06-22T19:50:11.604Z,14.50
2023-06-22T19:52:40.514Z,16.60
2023-06-22T19:55:10.331Z,14.30
2023-06-22T19:57:37.393Z,9.48
2023-06-22T20:00:13.366Z,15.88
2023-06-22T20:02:45.074Z,16.45
2023-06-22T20:05:13.769Z,13.43
2023-06-22T20:07:44.163Z,14.43
2023-06-22T20:10:16.262Z,13.82
2023-06-22T20:12:43.091Z,16.48
2023-06-22T20:15:23.895Z,15.30
2023-06-22T20:17:56.842Z,14.05
2023-06-22T20:20:28.817Z,15.48
2023-06-22T20:22:57.769Z,15.77
2023-06-22T20:25:25.832Z,18.50
2023-06-22T20:27:52.718Z,14.55
2023-06-22T20:30:21.307Z,14.98
2023-06-22T20:32:54.984Z,12.82
2023-06-22T20:35:24.242Z,11.80
2023-06-22T20:40:27.643Z,8.15
2023-06-22T20:42:58.983Z,7.82
2023-06-22T20:45:26.733Z,5.95
2023-06-22T20:47:54.804Z,7.95
2023-06-22T20:50:21.556Z,5.28
2023-06-22T20:52:48.279Z,14.77
2023-06-22T20:55:15.277Z,7.32
2023-06-22T20:57:42.455Z,5.03
2023-06-22T21:00:09.809Z,5.20
2023-06-22T21:02:36.537Z,5.30
2023-06-22T21:05:03.263Z,4.40
2023-06-22T21:07:30.039Z,4.10
2023-06-22T21:09:56.711Z,5.55
2023-06-22T21:12:23.374Z,2.40
2023-06-22T21:14:50.897Z,7.65
2023-06-22T21:17:19.531Z,3.90
2023-06-22T21:19:46.358Z,2.67
2023-06-22T21:22:13.332Z,5.13
2023-06-22T21:24:40.511Z,1.38
2023-06-22T21:27:08.191Z,5.07
2023-06-22T21:29:34.848Z,0.70
2023-06-22T21:32:01.570Z,2.58
2023-06-22T21:34:28.317Z,3.40
2023-06-22T21:36:55.925Z,3.47
2023-06-22T21:39:22.776Z,2.50
2023-06-22T21:41:49.530Z,3.28
2023-06-22T21:44:16.297Z,3.63
2023-06-22T21:46:43.103Z,0.93
2023-06-22T21:49:09.831Z,1.77
2023-06-22T21:51:36.597Z,2.80
2023-06-22T21:54:03.560Z,3.33
2023-06-22T21:56:30.241Z,1.83
2023-06-22T21:58:57.580Z,0.50
2023-06-22T22:01:24.287Z,1.85
2023-06-22T22:03:52.136Z,0.73
2023-06-22T22:06:21.410Z,0.73
2023-06-22T22:08:48.117Z,1.40
2023-06-22T22:11:14.761Z,3.38
2023-06-22T22:13:41.824Z,6.13
2023-06-22T22:16:08.427Z,1.63
2023-06-22T22:18:35.115Z,0.60
2023-06-22T22:21:01.729Z,7.60
2023-06-22T22:23:29.639Z,0.60
2023-06-22T22:25:56.298Z,1.33
2023-06-22T22:28:23.561Z,2.60
2023-06-22T22:30:51.083Z,3.83
2023-06-22T22:33:17.819Z,4.03
2023-06-22T22:35:44.417Z,3.30
2023-06-22T22:38:11.158Z,1.02
2023-06-22T22:40:38.041Z,3.30
2023-06-22T22:43:04.760Z,1.67
2023-06-22T22:45:32.122Z,3.95
2023-06-22T22:47:58.892Z,1.90
2023-06-22T22:50:26.100Z,1.58
2023-06-22T22:52:52.766Z,1.98
2023-06-22T22:55:19.796Z,2.85
2023-06-22T22:57:46.553Z,4.68
2023-06-22T23:00:13.860Z,7.45
2023-06-22T23:02:41.086Z,3.60
2023-06-22T23:05:08.211Z,2.90
2023-06-22T23:07:34.868Z,2.58
2023-06-22T23:10:01.557Z,3.28
2023-06-22T23:12:28.717Z,3.55
2023-06-22T23:14:55.430Z,2.90
2023-06-22T23:17:22.173Z,3.28
2023-06-22T23:19:49.553Z,3.22
2023-06-22T23:22:16.213Z,3.45
2023-06-22T23:24:42.925Z,3.35
2023-06-22T23:27:13.634Z,3.42
2023-06-22T23:29:40.301Z,3.78
2023-06-22T23:32:07.462Z,4.40
2023-06-22T23:34:34.276Z,3.38
2023-06-22T23:37:00.813Z,3.60
2023-06-22T23:39:27.724Z,4.97
2023-06-22T23:41:54.330Z,3.55
2023-06-22T23:44:20.988Z,4.00
2023-06-22T23:46:47.597Z,4.85
2023-06-22T23:49:15.555Z,4.68
2023-06-22T23:51:42.393Z,4.30
2023-06-22T23:54:09.088Z,7.10
2023-06-22T23:56:37.736Z,5.68
2023-06-22T23:59:04.893Z,5.25
